Latest Weather Observations for Gladstone Airport

IDQ60801

Issued at 2:05 pm EST Wednesday 16 April 2014 (issued every 30 minutes, with the page automatically refreshed every 10 minutes)

About weather observations | Map of weather stations | Latest weather observations for QLD | Other Formats
Station Details ID: 039326 Name: GLADSTONE AIRPORT Lat: -23.87 Lon: 151.22 Height: 16.6 m
Data from the previous 72 hours. | See also: Recent months at Gladstone Airport
Date/Time
EST
Temp
°C
App
Temp
°C
Dew
Point
Rel
Hum
%
Delta-T
°C
Wind Press
QNH
hPa
Press
MSL
hPa
Rain
since 9 am
mm
Dir
 
Spd
km/h
Gust
km/h
Spd
kts
Gust
kts
16/02:00pm 26.3 25.8 17.9 60 5.3 NNE 17 24 9 13 1013.5 - 0.0
16/01:30pm 26.3 25.3 17.6 58 5.5 ENE 19 24 10 13 1013.9 - 0.0
16/01:00pm 26.7 26.5 17.5 57 5.8 ENE 15 24 8 13 1014.2 - 0.0
16/12:30pm 26.5 27.5 17.8 58 5.5 N 9 15 5 8 1014.7 - 0.0
16/12:00pm 25.9 26.6 17.0 58 5.5 ENE 9 15 5 8 1015.0 1014.9 0.0
16/11:30am 25.8 25.9 17.4 59 5.3 NNE 13 22 7 12 1015.5 - 0.0
16/11:00am 25.7 26.4 17.9 62 4.9 E 11 17 6 9 1015.9 - 0.0
16/10:30am 25.7 26.5 17.4 60 5.2 SSE 9 15 5 8 1016.3 - 0.0
16/10:00am 24.9 27.0 17.1 62 4.8 N 2 6 1 3 1016.7 - 0.0
16/09:30am 25.2 26.3 17.1 60 5.0 E 7 13 4 7 1016.8 - 0.0
16/09:00am 24.5 25.6 16.7 61 4.8 E 6 11 3 6 1016.8 1016.7 0.0
16/08:30am 23.7 24.6 16.7 65 4.3 SSE 7 13 4 7 1016.8 - 0.0
16/08:00am 22.9 24.4 16.7 68 3.8 S 4 9 2 5 1016.5 - 0.0
16/07:30am 21.7 22.6 16.6 73 3.1 SSW 7 11 4 6 1016.4 - 0.0
16/07:00am 20.5 21.3 16.3 77 2.5 S 7 9 4 5 1016.1 - 0.0
16/06:30am 19.5 20.2 16.2 81 2.0 SSW 7 9 4 5 1015.8 - 0.0
16/06:00am 19.4 20.3 16.1 81 2.0 S 6 7 3 4 1015.4 1015.3 0.0
16/05:30am 19.7 20.6 16.2 80 2.1 S 6 7 3 4 1015.3 - 0.0
16/05:00am 19.9 21.0 16.7 82 1.9 S 6 7 3 4 1015.2 - 0.0
16/04:30am 20.2 21.5 17.0 82 1.9 S 6 7 3 4 1014.9 - 0.0
16/04:00am 21.0 21.7 16.2 74 2.9 SSE 7 11 4 6 1014.6 - 0.0
16/03:30am 21.3 22.4 16.7 75 2.8 SSE 6 9 3 5 1014.5 - 0.0
16/03:00am 21.3 22.5 16.9 76 2.7 SSE 6 13 3 7 1014.7 1014.6 0.0
16/02:30am 21.1 22.2 17.1 78 2.4 S 7 9 4 5 1014.7 - 0.0
16/02:00am 21.5 23.0 17.5 78 2.5 S 6 9 3 5 1014.9 - 0.0
16/01:30am 21.8 23.2 17.8 78 2.5 S 7 11 4 6 1015.1 - 0.0
16/01:00am 22.0 23.4 17.8 77 2.6 SSE 7 13 4 7 1015.2 - 0.0
16/12:30am 22.3 23.4 18.1 77 2.6 SSE 9 13 5 7 1015.5 - 0.0
16/12:00am 22.6 23.9 18.4 77 2.6 SSE 9 15 5 8 1015.7 1015.6 0.0
 
Date/Time
EST
Temp
°C
App
Temp
°C
Dew
Point
Rel
Hum
%
Delta-T
°C
Wind Press
QNH
hPa
Press
MSL
hPa
Rain
since 9 am
mm
Dir
 
Spd
km/h
Gust
km/h
Spd
kts
Gust
kts
15/11:30pm 22.6 24.3 18.6 78 2.5 SSE 7 11 4 6 1015.6 - 0.0
15/11:00pm 22.5 24.3 18.7 79 2.4 SSE 7 11 4 6 1015.6 - 0.0
15/10:30pm 22.3 24.0 18.5 79 2.4 S 7 9 4 5 1015.5 - 0.0
15/10:00pm 22.5 24.3 18.3 77 2.6 SSE 6 7 3 4 1015.4 - 0.0
15/09:30pm 23.0 24.7 18.5 76 2.8 SSE 7 11 4 6 1015.4 - 0.0
15/09:00pm 23.6 24.8 18.3 72 3.3 SSE 9 15 5 8 1015.3 1015.2 0.0
15/08:30pm 24.2 25.1 18.4 70 3.7 SE 11 17 6 9 1015.2 - 0.0
15/08:00pm 24.1 25.7 18.3 70 3.7 ESE 7 11 4 6 1015.0 - 0.0
15/07:30pm 24.2 25.5 18.4 70 3.7 E 9 11 5 6 1014.7 - 0.0
15/07:00pm 24.1 25.3 18.3 70 3.7 ENE 9 11 5 6 1014.4 - 0.0
15/06:30pm 24.3 25.1 18.2 68 3.8 E 11 13 6 7 1014.0 - 0.0
15/06:00pm 24.5 25.3 18.2 68 4.0 E 11 15 6 8 1013.9 1013.8 0.0
15/05:30pm 24.7 24.8 18.4 68 4.0 ENE 15 20 8 11 1013.6 - 0.0
15/05:00pm 25.4 24.9 17.8 62 4.8 E 17 20 9 11 1013.3 - 0.0
15/04:30pm 25.8 25.4 17.2 59 5.4 ENE 15 20 8 11 1013.0 - 0.0
15/04:00pm 26.0 25.5 16.8 57 5.7 ENE 15 20 8 11 1013.0 - 0.0
15/03:30pm 26.3 25.7 17.6 58 5.5 ENE 17 22 9 12 1012.8 - 0.0
15/03:00pm 26.7 26.3 18.0 59 5.5 ENE 17 24 9 13 1012.6 1012.5 0.0
15/02:30pm 26.5 25.2 16.7 55 6.1 ENE 19 24 10 13 1012.8 - 0.0
15/02:00pm 27.2 27.0 18.5 59 5.6 NE 17 22 9 12 1012.8 - 0.0
15/01:30pm 26.9 26.0 16.8 54 6.3 E 17 22 9 12 1012.9 - 0.0
15/01:00pm 26.9 26.1 16.2 52 6.6 E 15 22 8 12 1013.2 - 0.0
15/12:30pm 26.4 25.8 16.6 55 6.1 E 15 24 8 13 1013.5 - 0.0
15/12:00pm 26.4 26.2 16.6 55 6.1 ESE 13 19 7 10 1013.9 1013.8 0.0
15/11:30am 26.3 24.6 15.7 52 6.5 SE 19 28 10 15 1014.4 - 0.0
15/11:00am 26.0 23.3 15.7 53 6.3 ESE 24 32 13 17 1014.8 - 0.0
15/10:30am 26.0 23.8 16.0 54 6.1 SE 22 32 12 17 1015.1 - 0.0
15/10:00am 25.3 23.2 15.3 54 6.0 SSE 20 32 11 17 1015.2 - 0.0
15/09:30am 24.8 22.8 15.4 56 5.7 SE 20 32 11 17 1015.3 - 0.0
15/09:00am 24.8 23.2 16.0 58 5.4 SSE 19 32 10 17 1015.2 1015.1 0.2
15/08:30am 23.9 23.5 16.2 62 4.7 SSE 13 22 7 12 1015.1 - 0.2
15/08:00am 22.3 22.3 16.3 69 3.6 S 11 15 6 8 1015.0 - 0.2
15/07:30am 21.4 21.0 16.1 72 3.2 S 13 19 7 10 1014.8 - 0.2
15/07:00am 20.1 21.0 16.7 81 2.1 SSW 7 9 4 5 1014.8 - 0.2
15/06:30am 19.4 20.4 16.8 85 1.6 SSW 7 9 4 5 1014.6 - 0.2
15/06:00am 19.2 20.2 16.8 86 1.4 SSW 7 9 4 5 1014.2 1014.1 0.2
15/05:30am 19.4 20.4 16.8 85 1.6 SW 7 9 4 5 1013.8 - 0.2
15/05:00am 19.7 20.7 16.9 84 1.7 SSW 7 9 4 5 1013.4 - 0.2
15/04:30am 20.0 21.1 17.0 83 1.8 SW 7 11 4 6 1013.4 - 0.2
15/04:00am 20.7 21.6 16.5 77 2.5 SSW 7 9 4 5 1013.2 - 0.2
15/03:30am 20.5 21.6 16.7 79 2.3 SSW 6 9 3 5 1013.2 - 0.2
15/03:00am 20.5 21.5 16.9 80 2.2 SSW 7 9 4 5 1013.0 1012.9 0.2
15/02:30am 20.5 22.2 17.1 81 2.1 S 4 9 2 5 1013.1 - 0.2
15/02:00am 20.5 23.0 17.3 82 2.0 CALM 0 0 0 0 1013.1 - 0.2
15/01:30am 21.1 23.5 17.1 78 2.4 CALM 0 0 0 0 1013.1 - 0.2
15/01:00am 21.6 22.7 17.2 76 2.7 S 7 13 4 7 1012.9 - 0.2
15/12:30am 21.9 22.7 17.3 75 2.8 S 9 13 5 7 1012.9 - 0.2
15/12:00am 22.3 23.3 17.7 75 2.9 SSW 9 13 5 7 1013.0 1012.9 0.2
 
Date/Time
EST
Temp
°C
App
Temp
°C
Dew
Point
Rel
Hum
%
Delta-T
°C
Wind Press
QNH
hPa
Press
MSL
hPa
Rain
since 9 am
mm
Dir
 
Spd
km/h
Gust
km/h
Spd
kts
Gust
kts
14/11:30pm 22.5 23.4 17.6 74 3.0 SSW 9 13 5 7 1013.0 - 0.2
14/11:00pm 22.6 23.6 17.7 74 3.0 SSW 9 17 5 9 1013.1 - 0.2
14/10:30pm 22.7 23.3 17.8 74 3.0 S 11 15 6 8 1013.0 - 0.2
14/10:00pm 23.0 23.9 18.3 75 2.9 SSW 11 17 6 9 1013.1 - 0.2
14/09:30pm 23.1 24.4 18.4 75 3.0 SSW 9 15 5 8 1013.0 - 0.2
14/09:00pm 23.4 24.5 18.9 76 2.9 SSW 11 19 6 10 1012.9 1012.8 0.2
14/08:30pm 23.3 24.8 18.8 76 2.8 SSW 9 17 5 9 1012.5 - 0.2
14/08:00pm 23.5 25.5 18.8 75 3.0 SSW 6 11 3 6 1012.2 - 0.2
14/07:30pm 23.6 25.1 18.9 75 3.0 S 9 15 5 8 1011.7 - 0.2
14/07:00pm 23.8 25.3 18.9 74 3.1 S 9 17 5 9 1011.1 - 0.2
14/06:30pm 23.9 25.8 19.0 74 3.1 S 7 11 4 6 1010.5 - 0.2
14/06:00pm 24.4 25.9 18.8 71 3.6 S 9 13 5 7 1010.2 1010.1 0.2
14/05:30pm 24.9 26.0 18.8 69 3.9 S 11 17 6 9 1010.0 - 0.2
14/05:00pm 25.2 25.4 18.6 67 4.2 S 15 22 8 12 1009.5 - 0.2
14/04:30pm 25.2 25.4 18.6 67 4.2 S 15 24 8 13 1008.9 - 0.2
14/04:00pm 25.2 25.0 18.6 67 4.2 S 17 32 9 17 1008.6 - 0.2
14/03:30pm 25.6 25.2 19.0 67 4.2 S 19 32 10 17 1008.1 - 0.2
14/03:00pm 25.9 26.2 19.5 68 4.1 S 17 28 9 15 1007.7 1007.6 0.2
14/02:30pm 25.8 25.2 18.5 64 4.6 S 19 33 10 18 1007.5 - 0.2
14/02:00pm 26.5 26.5 18.9 63 4.9 S 17 24 9 13 1007.2 - 0.2
14/01:30pm 26.8 27.3 18.4 60 5.3 S 13 22 7 12 1007.1 - 0.2
14/01:00pm 26.5 26.3 18.4 61 5.2 S 17 28 9 15 1007.2 - 0.2
14/12:30pm 26.8 25.7 18.6 60 5.2 S 22 43 12 23 1007.4 - 0.2
14/12:00pm 26.0 24.8 18.4 63 4.8 SSE 22 39 12 21 1007.8 1007.7 0.0
14/11:30am 25.4 24.7 18.3 65 4.5 S 19 30 10 16 1008.2 - 0.0
14/11:00am 24.5 24.1 18.9 71 3.6 S 19 26 10 14 1008.6 - 0.0
14/10:30am 22.5 22.1 19.3 82 2.0 S 20 35 11 19 1008.8 - 0.0
14/10:00am 22.6 22.8 19.4 82 2.0 S 17 33 9 18 1008.8 - 0.0
14/09:30am 22.6 23.6 19.4 82 2.0 SW 13 17 7 9 1008.8 - 0.0
14/09:00am 23.2 24.5 19.4 79 2.4 S 11 20 6 11 1008.4 1008.3 49.8
14/08:30am 22.9 22.8 18.7 77 2.7 SSE 17 32 9 17 1007.8 - 49.8
14/08:00am 22.5 21.3 18.5 78 2.5 SSE 22 33 12 18 1007.0 - 49.8
14/07:30am 22.0 20.0 18.2 79 2.4 SE 26 43 14 23 1006.5 - 49.8
14/07:07am 21.8 19.1 18.4 81 2.1 SE 30 50 16 27 1006.5 - 49.8
14/07:00am 21.6 19.4 18.8 84 1.8 SE 28 41 15 22 1006.5 - 49.8
14/06:30am 21.3 18.8 18.9 86 1.5 SE 30 48 16 26 1006.5 - 49.8
14/06:05am 21.1 18.9 18.7 86 1.5 SE 28 46 15 25 1006.9 - 49.8
14/06:00am 21.0 19.3 18.9 88 1.3 SE 26 37 14 20 1007.0 1006.9 49.8
14/05:30am 20.9 19.1 18.8 88 1.3 SE 26 35 14 19 1007.2 - 49.4
14/05:00am 20.9 19.7 19.2 90 1.1 SE 24 35 13 19 1007.4 - 49.4
14/04:30am 20.5 20.2 19.2 92 0.8 SSE 19 26 10 14 1007.8 - 49.4
14/04:00am 20.3 20.7 19.1 93 0.8 SSE 15 24 8 13 1008.4 - 49.2
14/03:54am 20.3 20.7 19.1 93 0.8 SSE 15 24 8 13 1008.5 - 49.2
14/03:35am 20.2 21.0 19.0 93 0.8 SSE 13 22 7 12 1008.7 - 49.0
14/03:34am 20.2 21.0 19.0 93 0.8 SSE 13 22 7 12 1008.7 - 48.8
14/03:30am 20.3 20.7 19.1 93 0.8 SSE 15 22 8 12 1008.8 - 48.8
14/03:11am 20.3 21.5 19.0 92 0.8 SE 11 15 6 8 1009.1 - 48.4
14/03:00am 20.2 21.3 18.9 92 0.8 SE 11 17 6 9 1009.0 1008.9 48.0
14/02:42am 20.1 20.8 18.9 93 0.8 SE 13 20 7 11 1008.8 - 47.8
14/02:30am 20.0 20.7 18.8 93 0.8 SE 13 24 7 13 1008.6 - 47.4
14/02:29am 20.0 20.7 18.8 93 0.8 SE 13 24 7 13 1008.6 - 47.2
14/02:00am 20.0 20.3 18.7 92 0.8 SSE 15 24 8 13 1008.9 - 45.8
14/01:30am 20.0 19.4 18.5 91 0.9 SSE 19 30 10 16 1009.1 - 44.6
14/01:00am 20.1 19.7 18.8 92 0.8 SSE 19 28 10 15 1009.8 - 43.6
14/12:30am 20.2 19.6 18.5 90 1.1 SSE 19 28 10 15 1010.4 - 42.8
14/12:00am 20.2 19.0 18.5 90 1.1 SSE 22 37 12 20 1010.3 1010.2 42.6
 
Date/Time
EST
Temp
°C
App
Temp
°C
Dew
Point
Rel
Hum
%
Delta-T
°C
Wind Press
QNH
hPa
Press
MSL
hPa
Rain
since 9 am
mm
Dir
 
Spd
km/h
Gust
km/h
Spd
kts
Gust
kts
13/11:30pm 20.3 19.7 18.8 91 0.9 SSE 20 37 11 20 1010.6 - 42.2
13/11:00pm 20.5 20.6 19.2 92 0.8 SSE 17 26 9 14 1011.0 - 41.2
13/10:30pm 20.6 20.4 19.4 93 0.8 SSE 19 32 10 17 1011.0 - 40.0
13/10:24pm 20.7 21.0 19.5 93 0.8 SSE 17 26 9 14 1011.3 - 39.8
13/10:00pm 20.7 21.3 19.5 93 0.8 S 15 28 8 15 1011.8 - 38.0
13/09:30pm 20.8 20.7 19.5 92 0.8 SE 19 28 10 15 1011.8 - 33.4
13/09:29pm 20.8 20.7 19.5 92 0.8 SE 19 24 10 13 1011.8 - 33.2
13/09:13pm 20.9 22.0 19.7 93 0.8 SSE 13 19 7 10 1011.8 - 32.2
13/09:00pm 20.8 21.6 19.8 94 0.6 S 15 22 8 12 1011.2 1011.1 31.6
13/08:46pm 20.9 22.4 19.7 93 0.8 S 11 19 6 10 1011.6 - 30.0
13/08:30pm 20.9 22.4 19.7 93 0.8 S 11 19 6 10 1011.5 - 28.6
13/08:08pm 21.1 22.7 19.9 93 0.8 S 11 17 6 9 1011.4 - 25.6
13/08:02pm 21.2 23.1 19.8 92 0.9 SSW 9 17 5 9 1011.3 - 23.0
13/08:00pm 21.3 23.6 19.9 92 0.9 SSW 7 13 4 7 1011.4 - 22.8
13/07:30pm 21.3 22.5 19.9 92 0.9 S 13 24 7 13 1010.5 - 22.0
13/07:01pm 21.3 22.2 20.1 93 0.8 SSE 15 22 8 12 1010.3 - 21.0
13/07:00pm 21.3 22.2 20.1 93 0.8 SSE 15 24 8 13 1010.3 - 20.8
13/06:51pm 21.4 21.3 20.0 92 0.9 SE 20 33 11 18 1010.1 - 20.4
13/06:30pm 21.6 22.3 20.4 93 0.8 SSE 17 24 9 13 1010.3 - 17.6
13/06:00pm 21.9 22.2 20.5 92 0.9 SE 19 28 10 15 1009.8 1009.7 13.8
13/05:41pm 22.1 22.5 20.6 91 1.0 SE 19 30 10 16 1009.4 - 13.0
13/05:30pm 22.1 22.8 20.4 90 1.1 SSE 17 28 9 15 1009.2 - 12.6
13/05:28pm 22.2 23.4 20.7 91 1.0 SSE 15 22 8 12 1009.1 - 12.6
13/05:00pm 22.2 23.0 20.7 91 1.0 SSE 17 26 9 14 1008.8 - 12.2
13/04:30pm 22.0 22.8 20.6 92 0.9 SSE 17 26 9 14 1008.4 - 12.0
13/04:02pm 22.1 23.5 20.4 90 1.1 SSE 13 24 7 13 1008.8 - 11.0
13/04:00pm 22.2 23.8 20.7 91 1.0 SSE 13 20 7 11 1008.8 - 10.8
13/03:30pm 22.1 22.9 20.6 91 1.0 SSE 17 26 9 14 1008.7 - 10.6
13/03:00pm 22.1 22.4 20.4 90 1.1 SE 19 30 10 16 1008.5 1008.4 10.6
13/02:30pm 22.2 22.8 20.3 89 1.2 SE 17 28 9 15 1008.5 - 10.2
13/02:20pm 22.3 22.4 20.4 89 1.2 SE 20 33 11 18 1008.2 - 10.2

Other Formats:

Comma delimited format used in spreadsheet applications
http://www.bom.gov.au/fwo/IDQ60801/IDQ60801.94381.axf

JavaScript Object Notation format (JSON) in row-major order
http://www.bom.gov.au/fwo/IDQ60801/IDQ60801.94381.json